Time;durP1;ratioP1;P1;durP2;ratioP2;P2;SDS_P1;SDS_P2;PMS_P1;PMS_P2;Temp;Humidity;BMP_temperature;BMP_pressure;BME280_temperature;BME280_humidity;BME280_pressure;Samples;Min_cycle;Max_cycle;Signal;HPM_P1;HPM_P2
2023/07/08 00:00:17;;;;;;;4.90;2.80;;;;;;;22.04;82.31;100810.03;689823;28;4316;-59
2023/07/08 00:00:42;;;;;;;4.65;2.92;;;;;;;22.07;80.68;100814.31;689040;28;1609;-58
2023/07/08 00:01:08;;;;;;;5.80;3.20;;;;;;;22.07;81.04;100811.66;690225;28;1130;-58
2023/07/08 00:01:28;;;;;;;5.50;2.90;;;;;;;22.05;81.77;100806.41;690223;28;816;-59
2023/07/08 00:01:49;;;;;;;5.27;2.80;;;;;;;22.06;81.47;100807.28;689390;28;1479;-59
2023/07/08 00:02:11;;;;;;;4.55;2.88;;;;;;;22.02;82.74;100803.91;690336;28;944;-58
2023/07/08 00:02:31;;;;;;;5.20;3.00;;;;;;;22.00;84.90;100804.94;689364;28;2965;-58
2023/07/08 00:02:52;;;;;;;5.60;3.00;;;;;;;21.96;84.03;100809.56;689032;28;1881;-58
2023/07/08 00:03:16;;;;;;;5.03;3.15;;;;;;;21.92;83.86;100805.34;689348;28;4609;-58
2023/07/08 00:03:36;;;;;;;5.65;3.38;;;;;;;21.90;83.60;100809.84;688570;28;1622;-58
2023/07/08 00:03:57;;;;;;;5.60;2.90;;;;;;;21.87;84.05;100804.69;690340;28;900;-58
2023/07/08 00:04:17;;;;;;;5.22;2.90;;;;;;;21.80;87.92;100801.47;690185;28;1282;-58
2023/07/08 00:04:39;;;;;;;4.90;3.07;;;;;;;21.84;85.14;100794.22;689071;28;1837;-58
2023/07/08 00:04:59;;;;;;;5.60;3.10;;;;;;;21.88;82.97;100798.44;690556;28;1011;-58
2023/07/08 00:05:22;;;;;;;7.33;3.10;;;;;;;21.90;84.31;100799.22;690365;28;784;-58
2023/07/08 00:05:44;;;;;;;6.72;3.00;;;;;;;22.00;80.30;100797.81;688558;28;1488;-58
2023/07/08 00:06:10;;;;;;;5.03;3.10;;;;;;;22.01;81.37;100801.34;686431;28;1350;-58
2023/07/08 00:06:30;;;;;;;5.65;3.03;;;;;;;22.08;82.13;100800.97;684431;28;5021;-58
2023/07/08 00:06:51;;;;;;;5.32;2.92;;;;;;;22.01;82.11;100796.88;683232;28;1603;-58
2023/07/08 00:07:16;;;;;;;5.13;3.00;;;;;;;22.03;83.88;100800.31;682423;28;948;-58
2023/07/08 00:07:37;;;;;;;4.93;2.80;;;;;;;22.04;81.64;100802.06;682212;28;1267;-58
2023/07/08 00:07:57;;;;;;;5.82;2.60;;;;;;;22.02;83.19;100795.94;686359;28;905;-58
2023/07/08 00:08:20;;;;;;;5.72;2.80;;;;;;;21.99;82.74;100798.75;688159;28;821;-58
2023/07/08 00:08:40;;;;;;;4.70;2.78;;;;;;;21.97;83.26;100795.28;688537;28;1452;-58
2023/07/08 00:09:01;;;;;;;4.75;2.78;;;;;;;21.97;81.97;100795.28;690200;28;928;-58
2023/07/08 00:09:21;;;;;;;5.03;3.00;;;;;;;21.94;82.29;100792.78;689461;28;4867;-58
2023/07/08 00:09:41;;;;;;;5.30;3.00;;;;;;;21.92;82.96;100797.34;689184;28;1468;-58
2023/07/08 00:10:12;;;;;;;5.55;2.80;;;;;;;21.90;84.40;100797.44;689761;28;3117;-58
2023/07/08 00:10:32;;;;;;;4.70;2.88;;;;;;;21.90;81.98;100801.88;689729;28;1200;-58
2023/07/08 00:10:53;;;;;;;5.00;3.00;;;;;;;21.88;83.33;100803.75;685871;28;1501;-58
2023/07/08 00:11:15;;;;;;;4.70;3.00;;;;;;;21.87;81.66;100794.03;684953;28;1162;-58
2023/07/08 00:11:35;;;;;;;5.57;3.08;;;;;;;21.91;81.99;100796.47;683564;28;1647;-59
2023/07/08 00:11:57;;;;;;;6.00;3.20;;;;;;;22.03;80.16;100796.78;686099;28;778;-58
2023/07/08 00:12:17;;;;;;;4.88;3.05;;;;;;;22.01;82.31;100799.53;686758;28;4501;-58
2023/07/08 00:12:38;;;;;;;5.15;2.97;;;;;;;22.01;81.13;100794.19;684152;28;1504;-57
2023/07/08 00:12:58;;;;;;;5.20;3.00;;;;;;;21.99;82.19;100795.22;685430;28;797;-57
2023/07/08 00:13:18;;;;;;;4.43;2.87;;;;;;;21.96;82.60;100798.91;687350;28;1180;-58
2023/07/08 00:13:39;;;;;;;5.03;2.97;;;;;;;21.94;81.99;100800.78;683641;28;1564;-58
2023/07/08 00:13:59;;;;;;;4.97;2.80;;;;;;;21.92;82.18;100802.66;681668;29;1375;-58
2023/07/08 00:14:20;;;;;;;4.70;2.80;;;;;;;21.97;81.70;100791.78;681459;28;1047;-58
2023/07/08 00:14:40;;;;;;;5.13;2.90;;;;;;;21.93;86.11;100794.59;682949;28;1801;-58
2023/07/08 00:15:01;;;;;;;5.28;3.00;;;;;;;21.88;83.71;100795.78;684848;28;873;-58
2023/07/08 00:15:25;;;;;;;5.23;2.87;;;;;;;21.87;83.39;100791.38;687029;28;4372;-58
2023/07/08 00:15:45;;;;;;;4.60;2.63;;;;;;;21.79;86.66;100801.56;688749;28;1511;-58
2023/07/08 00:16:11;;;;;;;5.23;3.03;;;;;;;21.74;85.10;100793.81;690158;28;1003;-58
2023/07/08 00:16:32;;;;;;;4.63;3.08;;;;;;;21.73;85.86;100797.41;690740;28;928;-59
2023/07/08 00:16:52;;;;;;;4.83;2.90;;;;;;;21.76;86.55;100798.09;689119;28;1558;-58
2023/07/08 00:17:13;;;;;;;5.00;3.00;;;;;;;21.78;84.21;100792.72;689897;28;1354;-58
2023/07/08 00:17:33;;;;;;;4.80;3.00;;;;;;;21.76;85.56;100803.41;689313;28;1442;-58
2023/07/08 00:17:54;;;;;;;5.40;3.30;;;;;;;21.74;84.28;100799.97;685102;28;1516;-57
2023/07/08 00:18:22;;;;;;;5.45;2.97;;;;;;;21.74;86.41;100797.31;683932;28;4350;-58
2023/07/08 00:18:42;;;;;;;5.97;3.15;;;;;;;21.72;83.85;100791.22;683297;28;1458;-58
2023/07/08 00:19:09;;;;;;;5.10;3.17;;;;;;;21.70;84.93;100797.56;684938;28;932;-58
2023/07/08 00:19:29;;;;;;;5.30;2.95;;;;;;;21.66;86.33;100791.50;685972;28;928;-58
2023/07/08 00:19:52;;;;;;;4.83;3.07;;;;;;;21.68;83.32;100792.31;688406;28;1503;-58
2023/07/08 00:20:17;;;;;;;5.22;3.05;;;;;;;21.71;85.22;100789.50;690064;28;793;-58
2023/07/08 00:20:44;;;;;;;5.50;2.80;;;;;;;21.65;84.74;100788.94;686885;28;1579;-58
2023/07/08 00:21:09;;;;;;;5.18;2.90;;;;;;;21.63;87.16;100788.13;689656;28;4457;-60
2023/07/08 00:21:30;;;;;;;5.63;2.90;;;;;;;21.62;88.84;100794.41;688271;28;952;-58
2023/07/08 00:21:51;;;;;;;5.80;3.00;;;;;;;21.59;85.80;100790.94;688636;28;1414;-58
2023/07/08 00:22:14;;;;;;;4.78;2.90;;;;;;;21.62;85.66;100795.25;685211;28;1497;-58
2023/07/08 00:22:36;;;;;;;5.30;2.90;;;;;;;21.63;87.40;100791.66;689032;28;1430;-57
2023/07/08 00:22:56;;;;;;;5.55;3.00;;;;;;;21.58;85.67;100791.03;689255;28;964;-58
2023/07/08 00:23:21;;;;;;;5.50;3.07;;;;;;;21.60;89.59;100791.81;690376;28;1280;-57
2023/07/08 00:23:49;;;;;;;5.45;3.10;;;;;;;21.58;86.60;100789.22;688606;28;1695;-58
2023/07/08 00:24:10;;;;;;;5.22;3.20;;;;;;;21.56;86.15;100790.25;689663;28;4428;-56
2023/07/08 00:24:30;;;;;;;5.80;3.60;;;;;;;21.54;85.42;100786.78;690144;28;976;-58
2023/07/08 00:24:51;;;;;;;5.53;3.05;;;;;;;21.52;86.50;100783.31;689143;28;1547;-58
2023/07/08 00:25:11;;;;;;;5.45;3.15;;;;;;;21.49;88.01;100791.44;690211;28;1124;-58
2023/07/08 00:25:32;;;;;;;5.53;3.13;;;;;;;21.48;84.91;100793.25;690217;28;904;-58
2023/07/08 00:25:52;;;;;;;5.80;3.22;;;;;;;21.54;86.58;100792.09;689007;28;1796;-58
2023/07/08 00:26:27;;;;;;;5.70;3.03;;;;;;;21.48;86.16;100787.91;690078;28;890;-58
2023/07/08 00:26:48;;;;;;;5.50;2.90;;;;;;;21.53;88.27;100790.38;684469;28;1937;-58
2023/07/08 00:27:12;;;;;;;5.30;3.00;;;;;;;21.51;88.90;100787.75;686118;28;4718;-58
2023/07/08 00:27:32;;;;;;;5.47;2.92;;;;;;;21.62;85.29;100789.94;682154;28;1303;-57
2023/07/08 00:27:53;;;;;;;5.20;2.80;;;;;;;21.58;86.45;100796.34;681582;28;1576;-58
2023/07/08 00:28:20;;;;;;;4.72;2.95;;;;;;;21.53;87.11;100785.94;685386;28;791;-57
2023/07/08 00:28:41;;;;;;;5.88;3.20;;;;;;;21.49;86.34;100787.00;683043;28;1595;-58
2023/07/08 00:29:01;;;;;;;5.60;3.00;;;;;;;21.48;85.14;100787.06;682591;28;1221;-58
2023/07/08 00:29:22;;;;;;;4.90;3.10;;;;;;;21.47;85.55;100790.66;683900;28;1351;-57
2023/07/08 00:29:43;;;;;;;4.60;2.93;;;;;;;21.44;85.88;100789.00;683207;28;1859;-59
2023/07/08 00:30:18;;;;;;;4.60;2.90;;;;;;;21.50;87.85;100790.50;682104;28;1311;-58
2023/07/08 00:30:39;;;;;;;5.03;2.83;;;;;;;21.48;86.40;100789.72;683510;28;4965;-58
2023/07/08 00:30:59;;;;;;;5.00;3.00;;;;;;;21.54;88.17;100790.28;688948;28;783;-58
2023/07/08 00:31:25;;;;;;;4.82;2.90;;;;;;;21.51;86.67;100789.56;687862;28;996;-57
2023/07/08 00:31:45;;;;;;;6.07;3.10;;;;;;;21.51;86.25;100790.41;688567;28;1475;-57
2023/07/08 00:32:11;;;;;;;5.45;3.03;;;;;;;21.58;86.47;100788.38;689603;28;1204;-58
2023/07/08 00:32:31;;;;;;;5.72;3.20;;;;;;;21.54;88.36;100789.44;686259;28;877;-56
2023/07/08 00:32:53;;;;;;;5.63;3.10;;;;;;;21.51;86.31;100789.56;683825;28;1581;-57
2023/07/08 00:33:14;;;;;;;4.78;3.00;;;;;;;21.50;87.30;100787.84;682181;28;4346;-58
2023/07/08 00:33:34;;;;;;;5.63;3.00;;;;;;;21.49;87.03;100788.78;685852;28;991;-58
2023/07/08 00:33:55;;;;;;;5.50;2.93;;;;;;;21.50;88.55;100791.38;685772;28;1450;-58
2023/07/08 00:34:16;;;;;;;4.80;3.03;;;;;;;21.49;84.57;100786.09;687288;28;1022;-57
2023/07/08 00:34:36;;;;;;;6.35;3.35;;;;;;;21.48;86.26;100792.38;684264;28;893;-58
2023/07/08 00:34:58;;;;;;;5.07;3.17;;;;;;;21.49;88.21;100788.78;687425;28;1303;-58
2023/07/08 00:35:22;;;;;;;5.40;3.30;;;;;;;21.49;90.74;100789.66;687180;28;1015;-57
2023/07/08 00:35:44;;;;;;;5.28;3.13;;;;;;;21.42;90.79;100789.09;687345;28;1514;-57
2023/07/08 00:36:13;;;;;;;5.80;3.10;;;;;;;21.43;89.86;100785.50;687676;28;4565;-58
2023/07/08 00:36:35;;;;;;;4.88;2.72;;;;;;;21.48;87.69;100790.56;685495;28;1552;-58
2023/07/08 00:36:55;;;;;;;4.97;3.00;;;;;;;21.51;85.84;100786.91;684103;28;1685;-58
2023/07/08 00:37:15;;;;;;;4.85;2.90;;;;;;;21.49;87.19;100787.00;686578;28;1118;-57
2023/07/08 00:37:36;;;;;;;5.20;2.93;;;;;;;21.48;88.19;100787.06;685383;28;1642;-58
2023/07/08 00:38:03;;;;;;;5.13;2.85;;;;;;;21.47;86.99;100782.69;686480;28;788;-58
2023/07/08 00:38:28;;;;;;;4.75;3.10;;;;;;;21.46;86.90;100789.81;686102;28;1189;-57
2023/07/08 00:38:49;;;;;;;5.20;3.10;;;;;;;21.45;87.83;100788.06;686492;28;1499;-58
2023/07/08 00:39:17;;;;;;;5.30;3.07;;;;;;;21.48;90.10;100787.91;686803;28;4924;-58
2023/07/08 00:39:38;;;;;;;6.00;3.00;;;;;;;21.48;90.89;100785.25;685898;28;1685;-58
2023/07/08 00:39:59;;;;;;;4.78;2.78;;;;;;;21.46;87.70;100783.59;687438;28;1425;-58
2023/07/08 00:40:21;;;;;;;5.97;3.10;;;;;;;21.41;90.79;100781.19;682493;28;1184;-58
2023/07/08 00:41:09;;;;;;;5.50;3.10;;;;;;;21.43;88.24;100782.84;683029;28;1456;-58
2023/07/08 00:41:38;;;;;;;5.32;3.00;;;;;;;21.37;91.22;100782.25;676792;29;1354;-58
2023/07/08 00:42:06;;;;;;;4.90;2.97;;;;;;;21.41;88.52;100779.38;687605;28;891;-58
2023/07/08 00:42:27;;;;;;;5.20;3.28;;;;;;;21.52;84.20;100784.22;689341;28;4942;-57
2023/07/08 00:42:48;;;;;;;5.28;3.47;;;;;;;21.52;87.84;100789.53;688913;28;1451;-57
2023/07/08 00:43:09;;;;;;;5.00;2.95;;;;;;;21.51;86.64;100784.25;690209;28;1630;-57
2023/07/08 00:43:45;;;;;;;4.97;3.00;;;;;;;21.42;90.07;100786.41;689067;28;782;-57
2023/07/08 00:44:10;;;;;;;5.03;3.05;;;;;;;21.34;91.09;100783.25;690105;28;966;-58
2023/07/08 00:44:32;;;;;;;5.28;3.08;;;;;;;21.42;89.02;100788.22;689622;28;1385;-57
2023/07/08 00:44:53;;;;;;;5.82;3.08;;;;;;;21.38;87.83;100782.19;688819;28;2064;-58
2023/07/08 00:45:40;;;;;;;5.43;3.00;;;;;;;21.34;89.50;100785.06;689652;28;4503;-58
2023/07/08 00:46:25;;;;;;;4.95;2.80;;;;;;;21.40;90.10;100784.75;689717;28;2047;-56
2023/07/08 00:47:04;;;;;;;5.20;2.92;;;;;;;21.39;87.18;100791.00;688658;28;1453;-58
2023/07/08 00:47:25;;;;;;;5.63;2.92;;;;;;;21.42;85.93;100781.09;690218;28;1110;-58
2023/07/08 00:47:47;;;;;;;5.20;3.03;;;;;;;21.40;87.52;100784.75;688764;28;1559;-57
2023/07/08 00:48:16;;;;;;;6.05;3.10;;;;;;;21.38;85.67;100782.19;689831;28;4369;-58
2023/07/08 00:48:39;;;;;;;5.13;2.92;;;;;;;21.35;85.31;100784.13;689105;28;1598;-58
2023/07/08 00:49:08;;;;;;;5.53;3.00;;;;;;;21.30;86.36;100776.38;687719;28;2328;-57
2023/07/08 00:49:47;;;;;;;5.18;3.15;;;;;;;21.24;89.47;100779.34;686584;28;1384;-58
2023/07/08 00:50:11;;;;;;;5.70;3.33;;;;;;;21.34;86.88;100775.28;689284;28;1947;-57
2023/07/08 00:50:31;;;;;;;5.55;3.15;;;;;;;21.26;87.10;100778.31;685375;28;979;-58
2023/07/08 00:50:52;;;;;;;5.90;3.35;;;;;;;21.37;86.04;100785.78;686058;28;1508;-58
2023/07/08 00:51:13;;;;;;;4.97;3.23;;;;;;;21.32;87.38;100771.81;685356;28;4577;-57
2023/07/08 00:51:34;;;;;;;5.07;3.22;;;;;;;21.26;87.89;100777.44;686263;28;749;-58
2023/07/08 00:51:55;;;;;;;5.60;3.42;;;;;;;21.25;87.14;100781.03;682312;28;2315;-58
2023/07/08 00:52:33;;;;;;;5.67;3.03;;;;;;;21.23;86.55;100777.59;684148;28;1294;-58
2023/07/08 00:53:21;;;;;;;5.03;3.30;;;;;;;21.16;87.26;100776.19;686049;28;1653;-56
2023/07/08 00:53:42;;;;;;;4.80;3.30;;;;;;;21.22;88.39;100783.84;685503;28;1583;-58
2023/07/08 00:54:02;;;;;;;6.00;3.00;;;;;;;21.20;88.63;100775.94;685209;28;1165;-58
2023/07/08 00:54:22;;;;;;;5.53;2.90;;;;;;;21.17;88.68;100788.50;686854;28;4504;-57
2023/07/08 00:54:43;;;;;;;5.30;3.10;;;;;;;21.16;87.88;100777.03;686592;28;1465;-58
2023/07/08 00:55:09;;;;;;;4.93;3.23;;;;;;;21.15;87.18;100782.44;686874;28;892;-58
2023/07/08 00:55:29;;;;;;;5.97;3.63;;;;;;;21.13;87.35;100784.28;685558;28;952;-58
2023/07/08 00:55:51;;;;;;;5.25;2.90;;;;;;;21.12;87.63;100782.56;685940;28;1223;-58
2023/07/08 00:56:18;;;;;;;4.80;2.90;;;;;;;21.09;87.01;100783.56;689704;28;872;-57
2023/07/08 00:56:57;;;;;;;4.88;3.05;;;;;;;21.07;87.21;100785.44;689120;28;1646;-58
2023/07/08 00:57:17;;;;;;;5.70;3.42;;;;;;;21.07;86.79;100783.66;688784;28;4365;-57
2023/07/08 00:57:43;;;;;;;5.43;3.00;;;;;;;21.08;88.91;100787.16;688565;28;1449;-59
2023/07/08 00:58:04;;;;;;;4.68;2.97;;;;;;;21.07;89.03;100788.97;687280;28;1234;-59
2023/07/08 00:58:35;;;;;;;5.40;3.33;;;;;;;21.05;88.00;100782.84;687285;28;750;-58
2023/07/08 00:59:02;;;;;;;5.47;3.10;;;;;;;21.03;90.91;100782.06;685590;28;3048;-57
2023/07/08 00:59:42;;;;;;;5.57;3.22;;;;;;;21.03;88.00;100787.38;686846;28;734;-57
2023/07/08 01:00:08;;;;;;;5.18;3.17;;;;;;;21.03;87.53;100779.41;691509;28;798;-58
2023/07/08 01:00:29;;;;;;;5.40;3.40;;;;;;;21.01;86.74;100780.41;689363;28;6210;-57
2023/07/08 01:00:53;;;;;;;5.45;3.05;;;;;;;21.03;90.34;100787.38;685916;28;1524;-58
2023/07/08 01:01:14;;;;;;;5.13;3.17;;;;;;;21.02;88.10;100780.34;684646;28;842;-58
2023/07/08 01:01:40;;;;;;;5.00;2.97;;;;;;;21.00;88.23;100776.03;683942;28;880;-58
2023/07/08 01:02:09;;;;;;;5.40;3.30;;;;;;;20.97;89.05;100785.00;683728;28;853;-58
2023/07/08 01:02:35;;;;;;;6.35;3.33;;;;;;;20.98;86.75;100778.75;686390;28;1588;-57
2023/07/08 01:02:57;;;;;;;6.25;3.20;;;;;;;20.99;86.59;100784.91;686565;28;1102;-58
2023/07/08 01:03:20;;;;;;;5.88;3.15;;;;;;;21.00;86.58;100791.97;689397;28;4502;-57
2023/07/08 01:03:49;;;;;;;5.32;3.03;;;;;;;20.98;86.79;100780.56;682479;28;1492;-57
2023/07/08 01:04:14;;;;;;;5.82;3.17;;;;;;;21.00;87.91;100784.00;681050;28;981;-58
2023/07/08 01:04:46;;;;;;;5.15;3.03;;;;;;;20.99;87.86;100784.91;679451;28;1447;-57
2023/07/08 01:05:12;;;;;;;5.07;3.17;;;;;;;20.95;88.09;100781.56;684163;28;907;-58
2023/07/08 01:05:34;;;;;;;5.43;3.20;;;;;;;20.93;87.88;100780.75;684184;28;1375;-58
2023/07/08 01:05:59;;;;;;;4.90;3.05;;;;;;;20.96;86.88;100788.56;683510;28;2120;-58
2023/07/08 01:06:24;;;;;;;5.60;2.90;;;;;;;21.00;87.10;100781.34;685513;28;4699;-58
2023/07/08 01:06:52;;;;;;;5.22;2.90;;;;;;;20.98;87.66;100784.06;682290;28;1640;-58
2023/07/08 01:07:21;;;;;;;5.47;3.13;;;;;;;20.97;86.83;100782.34;687392;28;1373;-58
2023/07/08 01:07:45;;;;;;;5.03;3.10;;;;;;;20.97;86.31;100786.81;685357;28;1642;-57
2023/07/08 01:08:06;;;;;;;4.55;2.95;;;;;;;20.96;85.49;100783.25;687294;28;1298;-58
2023/07/08 01:08:28;;;;;;;4.88;3.10;;;;;;;20.95;86.12;100776.25;687531;28;1323;-57
2023/07/08 01:08:53;;;;;;;4.78;3.30;;;;;;;21.01;85.19;100785.72;687299;28;1034;-58
2023/07/08 01:09:15;;;;;;;5.72;3.25;;;;;;;20.96;89.83;100780.59;689558;28;4532;-57
2023/07/08 01:09:43;;;;;;;5.22;3.10;;;;;;;21.00;87.61;100781.34;689693;28;1405;-57
2023/07/08 01:10:07;;;;;;;4.72;3.20;;;;;;;20.98;88.19;100781.41;688600;28;1283;-58
2023/07/08 01:10:36;;;;;;;5.32;3.00;;;;;;;20.96;89.68;100775.28;688847;28;840;-58
2023/07/08 01:11:03;;;;;;;5.07;3.20;;;;;;;20.97;86.68;100779.69;684314;28;1091;-58
2023/07/08 01:11:24;;;;;;;5.28;3.10;;;;;;;20.94;88.53;100777.19;683390;28;1374;-58
2023/07/08 01:11:45;;;;;;;5.17;2.97;;;;;;;20.92;89.13;100774.59;683698;28;1517;-58
2023/07/08 01:12:11;;;;;;;5.60;3.00;;;;;;;20.96;87.32;100782.41;685331;28;4502;-59
2023/07/08 01:12:36;;;;;;;5.00;3.10;;;;;;;20.96;88.90;100782.41;687315;28;825;-57
2023/07/08 01:13:00;;;;;;;5.05;3.13;;;;;;;20.94;87.52;100779.84;687197;28;1439;-58
2023/07/08 01:13:22;;;;;;;6.13;3.10;;;;;;;20.92;87.52;100773.72;685556;28;2255;-57
2023/07/08 01:13:44;;;;;;;5.50;2.80;;;;;;;20.93;89.49;100775.44;684973;28;1500;-58
2023/07/08 01:14:06;;;;;;;5.32;3.03;;;;;;;20.93;86.80;100778.09;682552;28;887;-58
2023/07/08 01:14:32;;;;;;;4.90;2.95;;;;;;;20.95;86.48;100778.03;680432;28;1375;-57
2023/07/08 01:14:55;;;;;;;5.35;3.42;;;;;;;20.90;87.97;100775.59;682988;28;924;-58
2023/07/08 01:15:15;;;;;;;4.85;3.00;;;;;;;20.91;87.24;100775.50;682945;28;4605;-57
2023/07/08 01:15:41;;;;;;;4.90;3.10;;;;;;;20.87;90.22;100776.59;684531;28;873;-58
2023/07/08 01:16:02;;;;;;;4.72;2.90;;;;;;;20.86;88.10;100774.84;682302;28;1351;-58
2023/07/08 01:16:23;;;;;;;5.20;2.97;;;;;;;20.85;89.10;100777.59;686177;28;1110;-58
2023/07/08 01:16:44;;;;;;;5.57;3.15;;;;;;;20.86;88.56;100772.19;683601;28;1447;-58
2023/07/08 01:17:04;;;;;;;5.30;3.23;;;;;;;20.86;88.07;100776.66;682257;28;858;-58
2023/07/08 01:17:29;;;;;;;4.43;2.90;;;;;;;20.85;88.33;100773.16;681174;28;873;-58
2023/07/08 01:17:53;;;;;;;4.80;3.00;;;;;;;20.83;88.46;100777.66;679894;29;1454;-57
2023/07/08 01:18:20;;;;;;;4.85;3.08;;;;;;;20.82;88.82;100775.94;680822;28;4454;-58
2023/07/08 01:18:42;;;;;;;4.70;2.93;;;;;;;20.81;87.96;100778.66;684968;28;978;-57
2023/07/08 01:19:06;;;;;;;5.20;3.08;;;;;;;20.80;89.04;100787.59;687282;28;901;-56
2023/07/08 01:19:34;;;;;;;5.30;3.00;;;;;;;20.80;86.85;100784.94;689449;28;1437;-58
2023/07/08 01:19:55;;;;;;;5.45;3.00;;;;;;;20.80;86.95;100788.44;688360;28;1584;-58
2023/07/08 01:20:15;;;;;;;5.95;3.13;;;;;;;20.78;86.91;100779.66;689704;28;837;-57
2023/07/08 01:20:37;;;;;;;4.97;3.20;;;;;;;20.79;86.65;100778.72;690175;28;825;-58
2023/07/08 01:21:06;;;;;;;5.90;2.90;;;;;;;20.81;86.65;100782.19;689073;28;1435;-58
2023/07/08 01:21:30;;;;;;;5.15;3.13;;;;;;;20.80;86.89;100782.28;689144;28;4754;-57
2023/07/08 01:21:53;;;;;;;5.18;2.95;;;;;;;20.79;86.80;100785.84;686340;28;1528;-58
2023/07/08 01:22:13;;;;;;;5.28;3.13;;;;;;;20.77;86.95;100791.25;687094;28;780;-58
2023/07/08 01:22:37;;;;;;;5.70;3.13;;;;;;;20.75;87.39;100786.00;686440;28;1323;-58
2023/07/08 01:22:57;;;;;;;4.80;2.90;;;;;;;20.75;88.37;100786.00;684433;28;939;-58
2023/07/08 01:23:18;;;;;;;5.67;3.00;;;;;;;20.72;89.55;100778.16;685774;28;892;-58
2023/07/08 01:23:39;;;;;;;4.82;3.10;;;;;;;20.71;90.36;100783.53;686794;28;1955;-57
2023/07/08 01:24:03;;;;;;;5.15;3.03;;;;;;;20.69;89.57;100782.75;687331;28;880;-58
2023/07/08 01:24:23;;;;;;;5.75;3.13;;;;;;;20.67;88.92;100784.56;682702;28;4572;-58
2023/07/08 01:24:45;;;;;;;5.17;3.10;;;;;;;20.65;88.32;100787.31;683795;28;1508;-58
2023/07/08 01:25:08;;;;;;;5.05;2.90;;;;;;;20.63;88.68;100789.19;684675;28;1631;-58
2023/07/08 01:25:28;;;;;;;5.00;3.00;;;;;;;20.62;89.08;100787.44;683524;28;920;-58
2023/07/08 01:25:49;;;;;;;5.60;3.30;;;;;;;20.61;89.46;100784.84;683517;28;1546;-58
2023/07/08 01:26:09;;;;;;;5.30;3.15;;;;;;;20.59;89.79;100787.59;686283;28;901;-58
2023/07/08 01:26:32;;;;;;;6.50;3.77;;;;;;;20.63;88.97;100783.88;684513;28;853;-58
2023/07/08 01:26:53;;;;;;;5.90;3.00;;;;;;;20.62;89.99;100784.78;683421;28;1580;-58
2023/07/08 01:27:17;;;;;;;4.90;2.90;;;;;;;20.61;90.00;100783.06;687710;28;4713;-57
2023/07/08 01:27:42;;;;;;;5.47;3.22;;;;;;;20.60;90.22;100786.63;688554;28;1530;-59
2023/07/08 01:28:03;;;;;;;5.15;2.95;;;;;;;20.65;91.50;100787.31;689473;28;980;-58
2023/07/08 01:28:23;;;;;;;4.90;2.80;;;;;;;20.64;91.87;100790.03;686464;28;1268;-58
2023/07/08 01:28:45;;;;;;;4.90;2.97;;;;;;;20.61;89.43;100785.72;685199;28;1590;-58
2023/07/08 01:29:07;;;;;;;5.57;3.10;;;;;;;20.60;88.33;100783.97;687344;28;1342;-58
2023/07/08 01:29:27;;;;;;;6.55;3.15;;;;;;;20.59;88.45;100779.63;687399;28;821;-58
2023/07/08 01:29:48;;;;;;;5.63;3.25;;;;;;;20.62;87.59;100787.44;683248;28;1630;-58
2023/07/08 01:30:10;;;;;;;5.40;3.30;;;;;;;20.62;89.36;100787.44;684470;28;4506;-58
2023/07/08 01:30:33;;;;;;;5.38;3.20;;;;;;;20.60;89.77;100783.97;688107;28;1390;-58
2023/07/08 01:30:53;;;;;;;6.88;3.25;;;;;;;20.56;88.73;100782.38;685356;28;1453;-58
2023/07/08 01:31:14;;;;;;;5.55;3.00;;;;;;;20.57;88.48;100787.66;685106;28;1014;-58
2023/07/08 01:31:35;;;;;;;5.10;3.20;;;;;;;20.58;90.48;100781.41;684734;28;857;-58
2023/07/08 01:32:02;;;;;;;5.00;3.00;;;;;;;20.60;91.15;100781.31;685722;28;1689;-58
2023/07/08 01:32:22;;;;;;;4.68;2.83;;;;;;;20.61;91.27;100782.19;687130;28;1401;-58
2023/07/08 01:32:48;;;;;;;5.55;3.20;;;;;;;20.59;91.02;100777.81;685753;28;1579;-57
2023/07/08 01:33:22;;;;;;;5.25;3.22;;;;;;;20.58;90.46;100783.19;685523;28;4426;-58
2023/07/08 01:33:42;;;;;;;5.03;3.35;;;;;;;20.57;88.93;100777.03;684779;28;1635;-58
2023/07/08 01:34:03;;;;;;;5.00;3.10;;;;;;;20.58;89.17;100788.50;684299;28;1666;-58
2023/07/08 01:34:24;;;;;;;5.30;3.20;;;;;;;20.59;91.38;100776.97;684928;28;916;-58
2023/07/08 01:34:59;;;;;;;4.75;3.08;;;;;;;20.58;93.16;100781.41;683181;28;2036;-58
2023/07/08 01:35:21;;;;;;;5.65;3.17;;;;;;;20.55;91.45;100778.88;688918;28;1231;-58
2023/07/08 01:35:42;;;;;;;4.85;3.15;;;;;;;20.51;91.40;100777.28;686389;28;2022;-57
2023/07/08 01:36:02;;;;;;;5.60;3.23;;;;;;;20.52;89.75;100779.03;689519;28;857;-58
2023/07/08 01:36:22;;;;;;;5.13;3.10;;;;;;;20.53;90.11;100779.88;688973;28;4368;-58
2023/07/08 01:36:48;;;;;;;4.87;3.00;;;;;;;20.53;90.15;100779.88;687385;28;1662;-58
2023/07/08 01:37:11;;;;;;;4.85;3.22;;;;;;;20.53;91.84;100778.09;685711;28;3249;-58
2023/07/08 01:37:42;;;;;;;4.38;2.95;;;;;;;20.53;91.33;100779.88;688882;28;1695;-56
2023/07/08 01:38:08;;;;;;;5.85;3.22;;;;;;;20.52;92.51;100772.84;689955;28;884;-58
2023/07/08 01:38:29;;;;;;;5.65;3.20;;;;;;;20.52;91.48;100778.16;688921;28;877;-57
2023/07/08 01:38:49;;;;;;;5.55;3.03;;;;;;;20.51;90.04;100773.78;690061;28;1020;-58
2023/07/08 01:39:14;;;;;;;5.50;3.07;;;;;;;20.51;90.33;100776.44;689139;28;4562;-58
2023/07/08 01:39:35;;;;;;;5.10;3.13;;;;;;;20.53;90.54;100785.19;690440;28;876;-58
2023/07/08 01:39:55;;;;;;;5.13;3.03;;;;;;;20.51;94.72;100773.78;688621;28;1548;-58
2023/07/08 01:40:19;;;;;;;4.83;3.00;;;;;;;20.52;90.54;100783.47;690079;28;842;-57
2023/07/08 01:40:57;;;;;;;5.03;2.97;;;;;;;20.51;91.50;100784.41;685595;28;1620;-58
2023/07/08 01:41:18;;;;;;;4.65;3.05;;;;;;;20.49;90.78;100778.28;683569;28;830;-58
2023/07/08 01:41:38;;;;;;;4.65;3.10;;;;;;;20.48;90.76;100784.53;682506;28;1583;-58
2023/07/08 01:41:59;;;;;;;5.07;3.10;;;;;;;20.47;91.32;100790.78;685465;28;865;-58
2023/07/08 01:42:19;;;;;;;6.28;3.40;;;;;;;20.44;92.39;100782.97;685389;28;4516;-58
2023/07/08 01:42:39;;;;;;;5.93;3.30;;;;;;;20.42;92.58;100778.56;687452;28;2082;-58
2023/07/08 01:43:01;;;;;;;6.03;3.10;;;;;;;20.42;91.87;100775.03;687405;28;904;-58
2023/07/08 01:43:22;;;;;;;6.05;3.00;;;;;;;20.41;92.09;100781.31;686945;28;801;-58
2023/07/08 01:43:43;;;;;;;6.50;3.10;;;;;;;20.40;92.36;100777.75;685671;28;5449;-58
2023/07/08 01:44:03;;;;;;;6.88;3.10;;;;;;;20.40;91.70;100780.41;686794;28;1509;-58
2023/07/08 01:44:31;;;;;;;4.80;2.93;;;;;;;20.42;91.15;100780.34;683045;28;1298;-59
2023/07/08 01:44:52;;;;;;;5.50;3.20;;;;;;;20.40;91.27;100783.06;686103;28;1611;-57
2023/07/08 01:45:14;;;;;;;5.38;3.33;;;;;;;20.39;91.58;100781.38;684199;28;4310;-58
2023/07/08 01:45:39;;;;;;;5.35;3.17;;;;;;;20.40;90.98;100779.56;682589;28;1410;-57
2023/07/08 01:46:02;;;;;;;6.10;3.00;;;;;;;20.40;91.23;100779.56;684571;28;882;-58
2023/07/08 01:46:26;;;;;;;5.38;2.97;;;;;;;20.40;90.98;100785.72;684824;28;874;-58
2023/07/08 01:46:46;;;;;;;5.05;2.95;;;;;;;20.39;91.32;100784.03;684219;28;1469;-58
2023/07/08 01:47:20;;;;;;;5.10;3.20;;;;;;;20.38;91.51;100779.63;688581;28;1330;-58
2023/07/08 01:48:02;;;;;;;5.85;3.30;;;;;;;20.39;94.00;100781.38;688291;28;911;-58
2023/07/08 01:48:24;;;;;;;5.95;3.13;;;;;;;20.38;93.05;100784.94;686391;28;4509;-58
2023/07/08 01:48:52;;;;;;;4.50;2.80;;;;;;;20.35;93.93;100784.22;684549;28;1490;-58
2023/07/08 01:49:15;;;;;;;5.40;3.20;;;;;;;20.33;93.89;100778.97;686984;28;925;-58
2023/07/08 01:49:38;;;;;;;5.60;3.10;;;;;;;20.32;93.64;100787.00;687616;28;1218;-58
2023/07/08 01:49:59;;;;;;;4.40;2.80;;;;;;;20.32;93.20;100781.69;686198;28;1207;-58
2023/07/08 01:50:21;;;;;;;4.80;3.10;;;;;;;20.32;92.40;100787.00;687014;28;1922;-56
2023/07/08 01:50:49;;;;;;;5.70;3.22;;;;;;;20.31;94.27;100783.50;686011;28;1929;-58
2023/07/08 01:51:11;;;;;;;4.75;3.03;;;;;;;20.31;92.77;100785.28;684724;28;4636;-56
2023/07/08 01:51:32;;;;;;;5.68;3.20;;;;;;;20.35;92.45;100782.44;684764;28;898;-58
2023/07/08 01:51:52;;;;;;;4.88;2.88;;;;;;;20.35;92.85;100784.22;686615;28;1568;-56
2023/07/08 01:52:16;;;;;;;5.00;3.10;;;;;;;20.33;93.73;100791.38;687406;28;963;-58
2023/07/08 01:52:37;;;;;;;5.10;2.97;;;;;;;20.31;92.75;100785.28;688547;28;968;-57
2023/07/08 01:53:00;;;;;;;4.80;3.08;;;;;;;20.33;94.05;100781.63;685670;28;1472;-58